KPDX METAR and TAF | Updated Today

KPDX METAR

Portland International Airport

Observation time: 62 min. ago

KPDX 261253Z 27004KT 10SM CLR 17/11 A2999 RMK AO2 SLP155 T01670111 $

Need help? Read our tutorial on how to read METARs or read the parsed version below.

Portland International Airport (KPDX) METAR

  • Weather conditions on Sun, 26 Jun 2022 12:53:00 +0000 (62 min. ago):
  • Present conditions: Dry
  • Clouds: Clear skies
  • Visibility: 16093 meters
  • Wind: 270 degrees at 4 knots
  • Temperature: 17 celsius
  • Dew point: 11 celsius
  • Pressure: 29.99 inHg
  • Remarks: AO2 SLP155 T01670111 $


Useful to know...

KPDX TAF

Portland International Airport

KPDX 261137Z 2612/2712 VRB04KT P6SM SKC FM261800 07008KT P6SM SKC FM270600 14007KT P6SM SKC
Observation time: 2:18 hr. ago
Need help? Read our tutorial on how to read TAFs or read the parsed version below.

Parsed version of TAF for Portland International Airport (KPDX)

  • From 26 June at 12:00 UTC, to day 27 of the month at 12:00 UTC
  • Clouds: No significant changes expected
  • Wind: Variable at 4
  • From day 26 of the month at 18:00 UTC
  • Clouds: No significant changes expected
  • Wind: 70 degrees at 8
  • From day 27 of the month at 06:00 UTC
  • Clouds: No significant changes expected
  • Wind: 140 degrees at 7